createdAt,value
2023-12-13T00:00:57.643Z,100366.00
2023-12-13T00:03:25.095Z,100380.41
2023-12-13T00:05:52.590Z,100368.38
2023-12-13T00:08:21.842Z,100365.47
2023-12-13T00:10:49.240Z,100371.75
2023-12-13T00:13:16.771Z,100373.56
2023-12-13T00:15:44.076Z,100365.88
2023-12-13T00:18:11.558Z,100332.31
2023-12-13T00:20:39.308Z,100328.00
2023-12-13T00:23:06.717Z,100372.69
2023-12-13T00:25:34.432Z,100383.00
2023-12-13T00:28:01.856Z,100341.25
2023-12-13T00:30:30.345Z,100360.91
2023-12-13T00:32:58.157Z,100361.16
2023-12-13T00:35:26.151Z,100373.22
2023-12-13T00:37:53.587Z,100366.91
2023-12-13T00:40:23.775Z,100355.28
2023-12-13T00:42:51.208Z,100338.34
2023-12-13T00:45:19.149Z,100334.13
2023-12-13T00:47:46.774Z,100380.25
2023-12-13T00:50:14.212Z,100304.94
2023-12-13T00:52:41.518Z,100374.50
2023-12-13T00:55:09.893Z,100358.81
2023-12-13T00:57:37.370Z,100377.91
2023-12-13T01:00:06.808Z,100348.91
2023-12-13T01:02:34.053Z,100358.66
2023-12-13T01:05:01.466Z,100328.69
2023-12-13T01:07:28.883Z,100357.16
2023-12-13T01:09:56.504Z,100311.03
2023-12-13T01:12:23.986Z,100362.53
2023-12-13T01:14:51.845Z,100349.44
2023-12-13T01:17:19.285Z,100339.84
2023-12-13T01:19:46.721Z,100319.78
2023-12-13T01:22:14.139Z,100358.44
2023-12-13T01:24:41.516Z,100329.66
2023-12-13T01:27:30.672Z,100354.09
2023-12-13T01:29:58.232Z,100354.34
2023-12-13T01:32:25.514Z,100332.75
2023-12-13T01:34:52.940Z,100305.34
2023-12-13T01:37:20.299Z,100319.72
2023-12-13T01:39:47.518Z,100336.72
2023-12-13T01:42:14.905Z,100309.53
2023-12-13T01:44:42.654Z,100335.31
2023-12-13T01:47:16.617Z,100312.00
2023-12-13T01:49:47.103Z,100287.28
2023-12-13T01:52:15.646Z,100321.56
2023-12-13T01:54:43.296Z,100330.41
2023-12-13T01:57:11.765Z,100322.56
2023-12-13T01:59:39.127Z,100327.63
2023-12-13T02:02:06.966Z,100340.13
2023-12-13T02:04:36.635Z,100316.66
2023-12-13T02:07:03.957Z,100345.59
2023-12-13T02:09:31.401Z,100322.97
2023-12-13T02:12:31.181Z,100342.81
2023-12-13T02:14:58.482Z,100334.69
2023-12-13T02:18:00.091Z,100324.09
2023-12-13T02:20:27.904Z,100329.50
2023-12-13T02:22:55.193Z,100313.63
2023-12-13T02:25:57.745Z,100327.34
2023-12-13T02:28:26.069Z,100318.47
2023-12-13T02:30:58.228Z,100340.00
2023-12-13T02:33:27.039Z,100327.69
2023-12-13T02:35:57.557Z,100338.91
2023-12-13T02:38:25.006Z,100344.38
2023-12-13T05:17:54.916Z,100331.78
2023-12-13T05:20:22.634Z,100344.34
2023-12-13T05:22:52.818Z,100303.91
2023-12-13T05:32:09.152Z,100335.88
2023-12-13T05:38:04.236Z,100372.00
2023-12-13T05:40:34.681Z,100341.28
2023-12-13T05:43:06.218Z,100312.25
2023-12-13T05:45:44.281Z,100341.50
2023-12-13T05:48:11.940Z,100300.94
2023-12-13T05:50:39.977Z,100299.13
2023-12-13T05:53:07.649Z,100326.03
2023-12-13T05:55:35.583Z,100325.25
2023-12-13T05:58:41.181Z,100344.31
2023-12-13T06:01:08.877Z,100316.84
2023-12-13T06:03:36.359Z,100309.88
2023-12-13T06:06:08.568Z,100313.56
2023-12-13T06:08:36.341Z,100282.22
2023-12-13T06:11:10.449Z,100333.53
2023-12-13T07:56:37.020Z,100359.03
2023-12-13T08:02:46.957Z,100344.22
2023-12-13T08:08:41.198Z,100374.53
2023-12-13T08:11:11.312Z,100368.25
2023-12-13T08:13:39.280Z,100353.09
2023-12-13T08:16:07.629Z,100277.88
2023-12-13T08:18:35.216Z,100337.16
2023-12-13T08:21:02.877Z,100346.56
2023-12-13T08:23:31.427Z,100351.00
2023-12-13T08:29:25.844Z,100319.38
2023-12-13T08:35:19.883Z,100328.81
2023-12-13T08:37:47.536Z,100347.59
2023-12-13T08:40:15.342Z,100351.50
2023-12-13T08:42:45.697Z,100287.22
2023-12-13T08:45:16.438Z,100306.31
2023-12-13T08:47:46.975Z,100286.47
2023-12-13T09:10:56.776Z,100310.47
2023-12-13T09:13:24.297Z,100296.63
2023-12-13T09:15:51.844Z,100271.03
2023-12-13T09:21:45.853Z,100290.91
2023-12-13T09:27:24.518Z,100282.31
2023-12-13T09:30:14.803Z,100296.41
2023-12-13T09:48:17.378Z,100324.88
2023-12-13T09:54:12.587Z,100285.41
2023-12-13T09:56:40.467Z,100314.13
2023-12-13T09:59:07.899Z,100297.97
2023-12-13T10:01:35.383Z,100329.31
2023-12-13T10:04:03.379Z,100270.28
2023-12-13T10:06:31.068Z,100284.34
2023-12-13T10:09:05.184Z,100294.03
2023-12-13T10:11:33.494Z,100272.34
2023-12-13T10:52:47.389Z,100291.97
2023-12-13T11:16:14.809Z,100306.88
2023-12-13T12:50:48.960Z,100365.94
2023-12-13T12:53:27.293Z,100344.53
2023-12-13T12:55:57.017Z,100327.09
2023-12-13T13:47:19.164Z,100331.22
2023-12-13T13:49:46.664Z,100327.97
2023-12-13T13:52:47.578Z,100329.06
2023-12-13T13:55:57.713Z,100345.41
2023-12-13T13:58:54.037Z,100329.78
2023-12-13T14:22:47.441Z,100346.34
2023-12-13T14:25:16.370Z,100295.47
2023-12-13T14:41:31.971Z,100298.88
2023-12-13T14:47:45.731Z,100344.44
2023-12-13T15:00:46.698Z,100337.28
2023-12-13T15:03:14.157Z,100338.03
2023-12-13T15:05:43.572Z,100332.97
2023-12-13T15:08:14.609Z,100337.47
2023-12-13T15:10:44.222Z,100307.72
2023-12-13T15:13:43.255Z,100340.00
2023-12-13T15:16:11.333Z,100330.34
2023-12-13T15:25:44.625Z,100340.31
2023-12-13T15:31:49.530Z,100322.22
2023-12-13T15:37:52.063Z,100320.88
2023-12-13T15:40:39.551Z,100336.09
2023-12-13T15:43:29.566Z,100315.44
2023-12-13T15:46:08.760Z,100351.81
2023-12-13T15:48:44.022Z,100292.00
2023-12-13T15:54:45.500Z,100303.69
2023-12-13T16:07:37.649Z,100332.56
2023-12-13T16:31:01.138Z,100344.75
2023-12-13T16:33:29.916Z,100319.31
2023-12-13T16:35:58.813Z,100302.31
2023-12-13T16:38:28.411Z,100321.25
2023-12-13T16:40:59.434Z,100307.09
2023-12-13T16:43:30.971Z,100328.75
2023-12-13T16:46:02.508Z,100280.28
2023-12-13T16:48:32.786Z,100328.44
2023-12-13T16:51:10.221Z,100314.06
2023-12-13T16:53:59.681Z,100294.03
2023-12-13T16:59:45.253Z,100293.56
2023-12-13T17:02:43.448Z,100335.47
2023-12-13T17:05:16.363Z,100324.13
2023-12-13T17:07:48.543Z,100284.09
2023-12-13T17:10:17.285Z,100314.22
2023-12-13T17:12:45.827Z,100328.00
2023-12-13T17:15:15.411Z,100325.00
2023-12-13T17:17:43.811Z,100316.50
2023-12-13T17:40:59.063Z,100309.63
2023-12-13T18:37:30.403Z,100333.44
2023-12-13T18:40:19.840Z,100370.75
2023-12-13T18:43:08.395Z,100349.81
2023-12-13T18:52:39.261Z,100347.75
2023-12-13T19:08:39.948Z,100363.25
2023-12-13T19:25:42.674Z,100404.50
2023-12-13T19:28:49.037Z,100358.97
2023-12-13T19:31:51.012Z,100371.84
2023-12-13T19:34:27.460Z,100379.25
2023-12-13T19:37:10.511Z,100362.25
2023-12-13T20:45:22.712Z,100410.59
2023-12-13T20:48:07.681Z,100375.44
2023-12-13T20:50:40.371Z,100382.00
2023-12-13T20:53:08.049Z,100396.34
2023-12-13T20:55:40.429Z,100403.03
2023-12-13T20:58:07.994Z,100386.69
2023-12-13T21:00:38.584Z,100378.59
2023-12-13T21:03:06.568Z,100378.13
2023-12-13T21:05:38.851Z,100387.59
2023-12-13T21:08:06.435Z,100391.88
2023-12-13T21:10:38.796Z,100390.88
2023-12-13T21:13:07.955Z,100389.31
2023-12-13T21:15:35.608Z,100395.75
2023-12-13T21:18:03.231Z,100393.66
2023-12-13T21:20:46.296Z,100397.34
2023-12-13T21:23:22.359Z,100377.13
2023-12-13T21:25:49.781Z,100383.22
2023-12-13T21:28:17.312Z,100389.53
2023-12-13T21:30:44.870Z,100392.31
2023-12-13T21:34:11.955Z,100416.72
2023-12-13T21:36:44.839Z,100397.13
2023-12-13T21:39:24.608Z,100388.91
2023-12-13T21:41:52.182Z,100416.06
2023-12-13T21:47:46.845Z,100382.31
2023-12-13T21:50:14.369Z,100385.72
2023-12-13T21:52:42.233Z,100379.78
2023-12-13T21:55:10.179Z,100383.94
2023-12-13T21:57:37.823Z,100383.69
2023-12-13T22:00:07.437Z,100380.34
2023-12-13T22:02:35.079Z,100396.13
2023-12-13T22:05:06.112Z,100396.63
2023-12-13T22:07:33.984Z,100378.09
2023-12-13T22:10:01.584Z,100403.44
2023-12-13T22:12:29.870Z,100375.41
2023-12-13T22:14:57.327Z,100365.19
2023-12-13T22:17:24.831Z,100373.44
2023-12-13T22:20:27.459Z,100403.69
2023-12-13T22:22:56.581Z,100406.78
2023-12-13T22:25:24.080Z,100361.16
2023-12-13T22:27:51.533Z,100383.81
2023-12-13T22:30:33.404Z,100405.69
2023-12-13T22:33:01.146Z,100396.78
2023-12-13T22:35:29.019Z,100374.53
2023-12-13T22:37:56.412Z,100373.81
2023-12-13T22:41:00.088Z,100402.44
2023-12-13T22:43:27.993Z,100383.50
2023-12-13T22:45:55.324Z,100378.63
2023-12-13T22:48:22.762Z,100382.41
2023-12-13T22:50:50.755Z,100371.41
2023-12-13T22:53:19.224Z,100391.72
2023-12-13T23:00:18.361Z,100396.66
2023-12-13T23:02:45.907Z,100368.53
2023-12-13T23:05:13.667Z,100383.25
2023-12-13T23:07:41.175Z,100371.56
2023-12-13T23:10:11.129Z,100353.22
2023-12-13T23:12:38.604Z,100369.38
2023-12-13T23:15:06.472Z,100353.50
2023-12-13T23:17:34.182Z,100339.88
2023-12-13T23:20:01.903Z,100360.72
2023-12-13T23:22:29.387Z,100378.44
2023-12-13T23:24:56.860Z,100369.56
2023-12-13T23:27:24.353Z,100350.00
2023-12-13T23:29:51.750Z,100351.00
2023-12-13T23:32:19.241Z,100375.09
2023-12-13T23:34:47.849Z,100354.84
2023-12-13T23:37:15.328Z,100373.69
2023-12-13T23:39:42.681Z,100366.38
2023-12-13T23:42:10.075Z,100384.72
2023-12-13T23:44:37.634Z,100368.06
2023-12-13T23:47:05.546Z,100368.72
2023-12-13T23:49:39.559Z,100361.63
2023-12-13T23:52:07.575Z,100381.88
2023-12-13T23:54:38.358Z,100368.97
2023-12-13T23:57:06.035Z,100368.78
2023-12-13T23:59:33.579Z,100352.13
